McKinney's Hourly Summary for Saturday, March 18, 2017
Hour Temp
(f)
RH
(%)
Solar Rad.
(MJ/m2)
Rainfall
(in)
Wind
(mph)
3/18/2017 12:00 AM 68 72 0 0 3.78
3/18/2017 1:00 AM 67 73 0 0 1.76
3/18/2017 2:00 AM 68 72 0 0 6.34
3/18/2017 3:00 AM 68 75 0 0 6.04
3/18/2017 4:00 AM 66 79 0 0 4.45
3/18/2017 5:00 AM 65 84 0 0 2.31
3/18/2017 6:00 AM 64 87 0 0 1.43
3/18/2017 7:00 AM 63 99 0 0 1.91
3/18/2017 8:00 AM 64 98 0.02 0 5.08
3/18/2017 9:00 AM 64 98 0.11 0 3.49
3/18/2017 10:00 AM 65 94 0.26 0 1.84
3/18/2017 11:00 AM 67 84 0.7 0 1.67
3/18/2017 12:00 PM 69 77 1.13 0 0.67
3/18/2017 1:00 PM 71 73 1.8 0 2.04
3/18/2017 2:00 PM 72 70 1.74 0 2.82
3/18/2017 3:00 PM 74 68 2.43 0 4.17
3/18/2017 4:00 PM 75 65 2.3 0 5.66
3/18/2017 5:00 PM 76 65 1.71 0 6.82
3/18/2017 6:00 PM 76 65 1.09 0 7.22
3/18/2017 7:00 PM 74 68 0.42 0 7.27
3/18/2017 8:00 PM 70 74 0.04 0 2.87
3/18/2017 9:00 PM 67 81 0 0 0
3/18/2017 10:00 PM 65 82 0 0 0
3/18/2017 11:00 PM 64 88 0 0 0
Data Summary 68 78 13.75 0.00 3.32